Time;durP1;ratioP1;P1;durP2;ratioP2;P2;SDS_P1;SDS_P2;PMS_P1;PMS_P2;Temp;Humidity;BMP_temperature;BMP_pressure;BME280_temperature;BME280_humidity;BME280_pressure;Samples;Min_cycle;Max_cycle;Signal;HPM_P1;HPM_P2
2022/07/25 00:01:11;;;;;;;8.15;7.28;;;;;;;;;;5040054;28;20044;-79
2022/07/25 00:03:36;;;;;;;9.70;6.95;;;;;;;;;;5003310;28;20032;-79
2022/07/25 00:06:02;;;;;;;15.15;7.65;;;;;;;;;;5029943;28;20607;-79
2022/07/25 00:08:27;;;;;;;8.93;7.75;;;;;;;;;;5049292;28;20044;-77
2022/07/25 00:10:52;;;;;;;8.77;7.70;;;;;;;;;;5044769;28;20048;-78
2022/07/25 00:13:18;;;;;;;11.20;8.02;;;;;;;;;;5068622;28;20052;-77
2022/07/25 00:15:43;;;;;;;8.68;7.75;;;;;;;;;;5035739;28;20123;-78
2022/07/25 00:18:08;;;;;;;9.93;8.43;;;;;;;;;;5036019;28;20048;-78
2022/07/25 00:20:34;;;;;;;11.25;8.18;;;;;;;;;;5031358;28;20136;-78
2022/07/25 00:22:59;;;;;;;10.32;8.73;;;;;;;;;;5034818;28;20059;-79
2022/07/25 00:25:24;;;;;;;11.38;8.85;;;;;;;;;;4997749;28;20487;-79
2022/07/25 00:27:50;;;;;;;9.75;8.75;;;;;;;;;;5020187;28;20153;-78
2022/07/25 00:30:15;;;;;;;9.10;8.02;;;;;;;;;;5043558;28;20142;-79
2022/07/25 00:32:41;;;;;;;12.48;9.13;;;;;;;;;;5014562;28;20025;-78
2022/07/25 00:35:06;;;;;;;12.57;9.80;;;;;;;;;;5056824;28;20484;-80
2022/07/25 00:37:32;;;;;;;12.50;9.55;;;;;;;;;;5034107;28;20056;-78
2022/07/25 00:39:57;;;;;;;13.60;10.40;;;;;;;;;;5037539;28;20024;-78
2022/07/25 00:42:23;;;;;;;12.40;11.05;;;;;;;;;;5056953;28;20074;-79
2022/07/25 00:44:48;;;;;;;11.88;9.80;;;;;;;;;;5056444;28;20071;-79
2022/07/25 00:47:15;;;;;;;16.05;10.70;;;;;;;;;;5049274;28;20128;-79
2022/07/25 00:49:40;;;;;;;14.85;11.75;;;;;;;;;;5048778;28;20052;-78
2022/07/25 00:52:06;;;;;;;15.50;11.23;;;;;;;;;;5020156;28;20064;-78
2022/07/25 00:54:31;;;;;;;18.80;12.30;;;;;;;;;;5011275;28;20037;-78
2022/07/25 00:56:56;;;;;;;13.52;12.07;;;;;;;;;;5058086;28;20085;-78
2022/07/25 00:59:22;;;;;;;14.98;12.23;;;;;;;;;;5001648;28;24260;-80
2022/07/25 01:01:47;;;;;;;17.35;12.48;;;;;;;;;;5020439;28;20120;-79
2022/07/25 01:04:13;;;;;;;16.50;12.70;;;;;;;;;;5036038;28;20059;-78
2022/07/25 01:06:38;;;;;;;16.33;12.35;;;;;;;;;;5041983;28;20082;-78
2022/07/25 01:09:04;;;;;;;15.43;13.88;;;;;;;;;;5034598;28;20081;-77
2022/07/25 01:11:30;;;;;;;17.83;14.45;;;;;;;;;;5036028;28;20025;-79
2022/07/25 01:13:57;;;;;;;20.25;14.32;;;;;;;;;;5029604;28;20055;-78
2022/07/25 01:16:22;;;;;;;20.98;15.02;;;;;;;;;;5025088;28;20033;-78
2022/07/25 01:18:47;;;;;;;20.77;16.45;;;;;;;;;;5035572;28;20158;-79
2022/07/25 01:21:13;;;;;;;18.13;16.17;;;;;;;;;;5053277;28;20100;-79
2022/07/25 01:23:39;;;;;;;21.15;16.23;;;;;;;;;;5028425;28;20111;-79
2022/07/25 01:26:04;;;;;;;21.67;16.10;;;;;;;;;;5026828;28;20119;-78
2022/07/25 01:28:29;;;;;;;17.50;15.65;;;;;;;;;;5007303;28;20036;-78
2022/07/25 01:30:56;;;;;;;23.38;15.77;;;;;;;;;;5033727;28;20028;-77
2022/07/25 01:33:21;;;;;;;18.00;15.40;;;;;;;;;;5017038;28;20517;-78
2022/07/25 01:35:47;;;;;;;17.88;15.25;;;;;;;;;;5049963;28;20092;-78
2022/07/25 01:38:12;;;;;;;19.50;15.98;;;;;;;;;;5050753;28;20052;-78
2022/07/25 01:40:38;;;;;;;18.95;17.08;;;;;;;;;;5018585;28;20244;-77
2022/07/25 01:43:04;;;;;;;17.35;14.77;;;;;;;;;;5017703;28;20052;-78
2022/07/25 01:45:30;;;;;;;20.23;15.30;;;;;;;;;;5053836;28;20029;-77
2022/07/25 01:47:55;;;;;;;18.05;15.07;;;;;;;;;;5051878;28;20446;-80
2022/07/25 01:50:21;;;;;;;17.52;15.63;;;;;;;;;;5054661;28;20391;-79
2022/07/25 01:52:46;;;;;;;20.13;16.58;;;;;;;;;;5048837;28;20116;-77
2022/07/25 01:55:11;;;;;;;21.75;16.65;;;;;;;;;;5052670;28;20511;-79
2022/07/25 01:57:37;;;;;;;18.05;15.10;;;;;;;;;;5030359;28;20114;-77
2022/07/25 02:00:04;;;;;;;20.60;16.90;;;;;;;;;;5051917;28;20047;-79
2022/07/25 02:02:30;;;;;;;15.48;13.95;;;;;;;;;;5037387;28;20036;-78
2022/07/25 02:04:55;;;;;;;21.67;17.55;;;;;;;;;;5040167;28;20455;-78
2022/07/25 02:07:21;;;;;;;17.00;14.88;;;;;;;;;;5029141;28;20039;-80
2022/07/25 02:09:46;;;;;;;20.48;16.95;;;;;;;;;;5054181;28;20040;-78
2022/07/25 02:12:11;;;;;;;19.35;15.48;;;;;;;;;;5029587;28;20053;-78
2022/07/25 02:14:37;;;;;;;19.10;17.10;;;;;;;;;;5019287;28;20060;-79
2022/07/25 02:17:02;;;;;;;22.25;17.80;;;;;;;;;;5050797;28;20464;-79
2022/07/25 02:19:27;;;;;;;18.52;16.60;;;;;;;;;;5027554;28;20062;-78
2022/07/25 02:21:53;;;;;;;23.15;18.08;;;;;;;;;;5044951;28;20032;-78
2022/07/25 02:24:18;;;;;;;21.85;17.17;;;;;;;;;;5034811;28;20087;-78
2022/07/25 02:26:43;;;;;;;21.35;17.65;;;;;;;;;;5047883;28;20048;-79
2022/07/25 02:29:09;;;;;;;19.73;17.33;;;;;;;;;;5046295;28;20049;-78
2022/07/25 02:31:34;;;;;;;20.30;17.65;;;;;;;;;;5049583;28;20532;-77
2022/07/25 02:34:00;;;;;;;19.63;17.73;;;;;;;;;;5032185;28;20060;-79
2022/07/25 02:36:25;;;;;;;22.75;16.95;;;;;;;;;;5046028;28;20052;-78
2022/07/25 02:38:50;;;;;;;19.65;17.10;;;;;;;;;;5012659;28;20534;-78
2022/07/25 02:41:16;;;;;;;21.00;18.27;;;;;;;;;;5010290;28;20065;-79
2022/07/25 02:43:41;;;;;;;23.05;18.40;;;;;;;;;;5024701;28;20057;-79
2022/07/25 02:46:06;;;;;;;22.27;18.08;;;;;;;;;;5032767;28;20484;-78
2022/07/25 02:48:32;;;;;;;18.95;16.48;;;;;;;;;;5031266;28;20120;-78
2022/07/25 02:50:57;;;;;;;23.48;17.83;;;;;;;;;;5038183;28;20070;-77
2022/07/25 02:53:22;;;;;;;19.70;17.65;;;;;;;;;;5044740;28;20076;-79
2022/07/25 02:55:48;;;;;;;22.13;17.17;;;;;;;;;;5033935;28;20040;-78
2022/07/25 02:58:13;;;;;;;23.52;17.83;;;;;;;;;;5032600;28;20744;-78
2022/07/25 03:00:39;;;;;;;20.63;17.33;;;;;;;;;;5020485;28;20071;-80
2022/07/25 03:03:04;;;;;;;19.05;17.15;;;;;;;;;;5032964;28;20480;-76
2022/07/25 03:05:29;;;;;;;20.02;17.85;;;;;;;;;;5006268;28;20049;-79
2022/07/25 03:07:56;;;;;;;21.02;18.55;;;;;;;;;;5028706;28;20025;-77
2022/07/25 03:10:22;;;;;;;24.20;16.65;;;;;;;;;;5015862;28;20480;-78
2022/07/25 03:12:47;;;;;;;18.75;16.77;;;;;;;;;;5048028;28;20048;-78
2022/07/25 03:15:12;;;;;;;19.98;17.30;;;;;;;;;;5047399;28;20028;-78
2022/07/25 03:17:38;;;;;;;21.88;18.35;;;;;;;;;;5015014;28;20032;-76
2022/07/25 03:20:04;;;;;;;22.30;17.40;;;;;;;;;;5014874;28;20040;-77
2022/07/25 03:22:30;;;;;;;22.00;17.88;;;;;;;;;;5039311;28;20029;-78
2022/07/25 03:24:55;;;;;;;19.95;18.02;;;;;;;;;;5051659;28;20384;-78
2022/07/25 03:27:20;;;;;;;21.98;18.63;;;;;;;;;;5026866;28;20029;-79
2022/07/25 03:29:46;;;;;;;19.17;17.23;;;;;;;;;;5018312;28;20051;-78
2022/07/25 03:32:11;;;;;;;24.13;19.35;;;;;;;;;;5049858;28;20025;-78
2022/07/25 03:34:37;;;;;;;24.30;19.48;;;;;;;;;;5050339;28;20587;-78
2022/07/25 03:37:02;;;;;;;21.60;19.25;;;;;;;;;;5056486;28;20067;-79
2022/07/25 03:39:28;;;;;;;20.88;18.50;;;;;;;;;;5034283;28;20041;-78
2022/07/25 03:41:54;;;;;;;22.98;19.30;;;;;;;;;;5000787;28;20485;-77
2022/07/25 03:44:21;;;;;;;21.15;18.83;;;;;;;;;;5037210;28;20047;-78
2022/07/25 03:46:46;;;;;;;25.95;20.33;;;;;;;;;;5026049;28;20029;-77
2022/07/25 03:49:11;;;;;;;21.02;18.90;;;;;;;;;;5031960;28;20063;-77
2022/07/25 03:51:37;;;;;;;24.23;19.80;;;;;;;;;;5011518;28;20029;-77
2022/07/25 03:54:02;;;;;;;22.30;19.85;;;;;;;;;;5054092;28;20063;-71
2022/07/25 03:56:30;;;;;;;23.38;18.77;;;;;;;;;;5046111;28;20048;-72
2022/07/25 03:58:56;;;;;;;21.65;18.27;;;;;;;;;;5046962;28;20382;-72
2022/07/25 04:01:21;;;;;;;22.42;19.30;;;;;;;;;;5040872;28;20090;-71
2022/07/25 04:03:46;;;;;;;24.85;19.92;;;;;;;;;;5060711;28;20045;-71
2022/07/25 04:06:12;;;;;;;22.08;19.00;;;;;;;;;;5052029;28;20052;-72
2022/07/25 04:08:37;;;;;;;21.77;19.25;;;;;;;;;;5048619;28;20036;-71
2022/07/25 04:11:02;;;;;;;22.52;20.08;;;;;;;;;;5049829;28;20086;-71
2022/07/25 04:13:28;;;;;;;23.50;19.27;;;;;;;;;;5050873;28;20122;-72
2022/07/25 04:15:54;;;;;;;22.60;19.25;;;;;;;;;;5046518;28;20060;-71
2022/07/25 04:18:20;;;;;;;23.88;18.92;;;;;;;;;;5045394;28;20033;-72
2022/07/25 04:20:46;;;;;;;20.63;18.42;;;;;;;;;;5050834;28;20127;-72
2022/07/25 04:23:11;;;;;;;19.98;17.50;;;;;;;;;;5049884;28;20116;-71
2022/07/25 04:25:37;;;;;;;22.48;19.90;;;;;;;;;;5049350;28;20049;-72
2022/07/25 04:28:02;;;;;;;21.40;17.77;;;;;;;;;;5042300;28;20378;-71
2022/07/25 04:30:27;;;;;;;21.73;19.35;;;;;;;;;;5052956;28;20468;-71
2022/07/25 04:32:53;;;;;;;24.02;19.23;;;;;;;;;;5052437;28;20043;-71
2022/07/25 04:35:18;;;;;;;22.55;18.60;;;;;;;;;;5045254;28;20039;-72
2022/07/25 04:37:43;;;;;;;23.40;18.15;;;;;;;;;;5047001;28;20549;-71
2022/07/25 04:40:10;;;;;;;23.85;18.98;;;;;;;;;;5044480;28;20175;-71
2022/07/25 04:42:35;;;;;;;22.67;17.15;;;;;;;;;;5054258;28;20025;-72
2022/07/25 04:45:00;;;;;;;22.83;18.88;;;;;;;;;;5055646;28;20036;-73
2022/07/25 04:47:26;;;;;;;24.88;19.10;;;;;;;;;;5051161;28;20119;-71
2022/07/25 04:49:51;;;;;;;20.40;18.30;;;;;;;;;;5055786;28;20112;-72
2022/07/25 04:52:17;;;;;;;22.83;18.88;;;;;;;;;;5047403;28;20182;-71
2022/07/25 04:54:42;;;;;;;20.30;17.50;;;;;;;;;;5051096;28;20112;-71
2022/07/25 04:57:08;;;;;;;21.88;17.95;;;;;;;;;;5047602;28;20119;-72
2022/07/25 04:59:33;;;;;;;20.38;16.88;;;;;;;;;;5054610;28;20052;-71
2022/07/25 05:01:58;;;;;;;24.45;18.45;;;;;;;;;;5053068;28;20074;-71
2022/07/25 05:04:24;;;;;;;24.60;16.70;;;;;;;;;;5043046;28;22876;-71
2022/07/25 05:06:49;;;;;;;24.25;17.15;;;;;;;;;;5050468;28;20056;-72
2022/07/25 05:09:15;;;;;;;20.20;17.38;;;;;;;;;;5052954;28;20075;-71
2022/07/25 05:11:40;;;;;;;21.10;18.35;;;;;;;;;;5052409;28;20116;-71
2022/07/25 05:14:05;;;;;;;20.67;17.50;;;;;;;;;;5036265;28;20032;-72
2022/07/25 05:16:31;;;;;;;18.98;15.45;;;;;;;;;;5048390;28;20064;-70
2022/07/25 05:18:56;;;;;;;24.38;18.85;;;;;;;;;;5044550;28;20033;-73
2022/07/25 05:21:21;;;;;;;19.67;16.52;;;;;;;;;;5046508;28;20045;-72
2022/07/25 05:23:47;;;;;;;20.85;16.58;;;;;;;;;;5048644;28;20156;-70
2022/07/25 05:26:12;;;;;;;22.90;16.33;;;;;;;;;;5050512;28;20124;-72
2022/07/25 05:28:38;;;;;;;21.48;17.45;;;;;;;;;;5046074;28;20088;-72
2022/07/25 05:31:03;;;;;;;21.23;17.00;;;;;;;;;;5046551;28;20489;-72
2022/07/25 05:33:29;;;;;;;17.70;15.82;;;;;;;;;;5025285;28;20061;-72
2022/07/25 05:35:54;;;;;;;18.65;15.13;;;;;;;;;;5042381;28;20108;-71
2022/07/25 05:38:19;;;;;;;19.85;16.80;;;;;;;;;;5052607;28;20046;-71
2022/07/25 05:40:45;;;;;;;18.23;15.98;;;;;;;;;;5052002;28;20045;-71
2022/07/25 05:43:10;;;;;;;19.90;15.50;;;;;;;;;;5051972;28;20090;-72
2022/07/25 05:45:35;;;;;;;19.73;15.02;;;;;;;;;;5052760;28;20112;-71
2022/07/25 05:48:01;;;;;;;15.68;13.25;;;;;;;;;;5049574;28;20812;-72
2022/07/25 05:50:26;;;;;;;23.38;14.43;;;;;;;;;;5052429;28;20139;-72
2022/07/25 05:52:52;;;;;;;16.35;13.60;;;;;;;;;;5038909;28;20548;-71
2022/07/25 05:55:17;;;;;;;14.45;11.57;;;;;;;;;;5042534;28;20045;-72
2022/07/25 05:57:43;;;;;;;16.95;11.80;;;;;;;;;;5047492;28;20048;-72
2022/07/25 06:00:09;;;;;;;14.35;11.75;;;;;;;;;;5048178;28;20465;-71
2022/07/25 06:02:34;;;;;;;16.10;10.95;;;;;;;;;;5048387;28;20041;-72
2022/07/25 06:04:59;;;;;;;17.17;10.82;;;;;;;;;;5052261;28;20087;-72
2022/07/25 06:07:25;;;;;;;13.50;10.18;;;;;;;;;;5052445;28;20108;-72
2022/07/25 06:09:50;;;;;;;14.73;10.13;;;;;;;;;;5046357;28;20151;-72
2022/07/25 06:12:16;;;;;;;11.00;9.52;;;;;;;;;;5040439;28;20059;-71
2022/07/25 06:14:41;;;;;;;12.32;10.02;;;;;;;;;;5047226;28;20052;-71
2022/07/25 06:17:07;;;;;;;15.00;10.35;;;;;;;;;;5049046;28;20124;-71
2022/07/25 06:19:32;;;;;;;13.02;10.50;;;;;;;;;;5050287;28;20469;-72
2022/07/25 06:21:57;;;;;;;13.40;10.63;;;;;;;;;;5047661;28;20540;-72
2022/07/25 06:24:23;;;;;;;14.35;12.23;;;;;;;;;;5038865;28;20107;-72
2022/07/25 06:26:48;;;;;;;18.48;12.00;;;;;;;;;;5046364;28;20119;-72
2022/07/25 06:29:13;;;;;;;17.00;12.07;;;;;;;;;;5046844;28;20374;-72
2022/07/25 06:31:39;;;;;;;16.65;11.80;;;;;;;;;;5041383;28;20118;-72
2022/07/25 06:34:04;;;;;;;17.65;10.93;;;;;;;;;;5041322;28;21230;-72
2022/07/25 06:36:29;;;;;;;19.98;13.20;;;;;;;;;;5039649;28;20109;-72
2022/07/25 06:38:55;;;;;;;15.35;11.27;;;;;;;;;;5042450;28;20039;-72
2022/07/25 06:41:20;;;;;;;18.48;12.68;;;;;;;;;;5042662;28;20133;-72
2022/07/25 06:43:46;;;;;;;16.20;12.50;;;;;;;;;;5035477;28;20056;-73
2022/07/25 06:46:11;;;;;;;16.23;11.50;;;;;;;;;;5035611;28;20039;-75
2022/07/25 06:48:37;;;;;;;16.63;11.70;;;;;;;;;;5044964;28;20540;-74
2022/07/25 06:51:02;;;;;;;13.10;10.82;;;;;;;;;;5045736;28;20166;-75
2022/07/25 06:53:27;;;;;;;15.40;11.55;;;;;;;;;;5043050;28;20481;-74
2022/07/25 06:55:53;;;;;;;14.77;10.90;;;;;;;;;;5046213;28;20042;-73
2022/07/25 06:58:18;;;;;;;15.93;10.18;;;;;;;;;;5046058;28;20211;-74
2022/07/25 07:00:44;;;;;;;15.85;11.55;;;;;;;;;;5058580;28;20128;-76
2022/07/25 07:03:09;;;;;;;14.35;10.88;;;;;;;;;;5052554;28;20501;-75
2022/07/25 07:05:37;;;;;;;11.43;9.15;;;;;;;;;;5059832;28;20162;-76
2022/07/25 07:08:04;;;;;;;11.98;9.65;;;;;;;;;;5024657;28;20102;-76
2022/07/25 07:10:30;;;;;;;18.45;8.93;;;;;;;;;;5036407;28;20036;-75
2022/07/25 07:13:09;;;;;;;10.43;8.95;;;;;;;;;;5038109;28;20461;-76
2022/07/25 07:15:35;;;;;;;10.60;9.38;;;;;;;;;;5033030;28;20423;-77
2022/07/25 07:18:00;;;;;;;13.68;8.98;;;;;;;;;;5063267;28;21875;-75
2022/07/25 07:20:25;;;;;;;11.10;8.32;;;;;;;;;;5065474;28;20069;-76
2022/07/25 07:22:51;;;;;;;10.18;8.40;;;;;;;;;;5014352;28;20560;-74
2022/07/25 07:25:17;;;;;;;14.60;9.40;;;;;;;;;;5026749;28;20115;-74
2022/07/25 07:27:43;;;;;;;10.82;9.18;;;;;;;;;;5029735;28;20074;-74
2022/07/25 07:30:09;;;;;;;12.55;8.52;;;;;;;;;;5028468;28;20089;-74
2022/07/25 07:32:34;;;;;;;11.68;9.00;;;;;;;;;;5062631;28;20146;-75
2022/07/25 07:35:00;;;;;;;16.08;10.10;;;;;;;;;;5049949;28;20064;-74
2022/07/25 07:37:25;;;;;;;12.63;8.93;;;;;;;;;;5040411;28;20031;-74
2022/07/25 07:39:51;;;;;;;10.02;8.82;;;;;;;;;;5027166;28;20074;-75
2022/07/25 07:42:16;;;;;;;13.77;8.88;;;;;;;;;;5057978;28;20506;-74
2022/07/25 07:44:41;;;;;;;10.93;9.23;;;;;;;;;;4998790;28;20061;-72
2022/07/25 07:47:07;;;;;;;13.95;8.95;;;;;;;;;;5062834;28;20063;-74
2022/07/25 07:49:32;;;;;;;10.60;7.32;;;;;;;;;;5059555;28;20479;-73
2022/07/25 07:51:57;;;;;;;13.52;8.18;;;;;;;;;;5040110;28;20123;-74
2022/07/25 07:57:07;;;;;;;13.55;6.10;;;;;;;;;;5055934;28;20032;-74
2022/07/25 07:59:32;;;;;;;6.82;5.72;;;;;;;;;;5060456;28;20209;-71
2022/07/25 08:01:58;;;;;;;8.95;6.00;;;;;;;;;;5064627;28;20175;-74
2022/07/25 08:04:23;;;;;;;8.77;5.75;;;;;;;;;;5067998;28;20518;-73
2022/07/25 08:06:48;;;;;;;7.45;5.28;;;;;;;;;;5061136;28;20049;-81
2022/07/25 08:09:14;;;;;;;5.47;4.45;;;;;;;;;;5015408;28;20124;-80
2022/07/25 08:11:39;;;;;;;8.68;4.88;;;;;;;;;;5012691;28;20106;-80
2022/07/25 08:14:05;;;;;;;7.78;4.35;;;;;;;;;;5067909;28;20081;-79
2022/07/25 08:16:31;;;;;;;9.02;5.20;;;;;;;;;;5044079;28;20580;-79
2022/07/25 08:18:57;;;;;;;8.02;4.50;;;;;;;;;;5035990;28;20037;-79
2022/07/25 08:21:22;;;;;;;8.30;4.88;;;;;;;;;;5048288;28;20078;-80
2022/07/25 08:23:48;;;;;;;6.18;4.43;;;;;;;;;;5028429;28;20039;-79
2022/07/25 08:26:13;;;;;;;9.95;4.75;;;;;;;;;;5021191;28;20101;-77
2022/07/25 08:28:39;;;;;;;7.80;5.00;;;;;;;;;;5054146;28;20104;-77
2022/07/25 08:31:05;;;;;;;6.40;4.88;;;;;;;;;;5030891;28;20570;-77
2022/07/25 08:33:30;;;;;;;6.95;5.00;;;;;;;;;;5060365;28;20031;-77
2022/07/25 08:35:57;;;;;;;6.63;4.38;;;;;;;;;;5006634;28;20056;-77
2022/07/25 08:38:23;;;;;;;9.50;4.03;;;;;;;;;;5034773;28;20029;-78
2022/07/25 08:40:49;;;;;;;6.45;4.65;;;;;;;;;;5030361;28;20544;-78
2022/07/25 08:43:15;;;;;;;7.47;4.80;;;;;;;;;;5032730;28;20025;-78
2022/07/25 08:45:45;;;;;;;7.10;4.60;;;;;;;;;;5046493;28;20453;-78
2022/07/25 08:48:10;;;;;;;8.95;4.43;;;;;;;;;;5022612;28;20029;-78
2022/07/25 08:50:35;;;;;;;6.93;3.97;;;;;;;;;;5031273;28;20868;-78
2022/07/25 08:53:01;;;;;;;7.30;4.32;;;;;;;;;;5033752;28;20044;-78
2022/07/25 08:55:27;;;;;;;8.15;4.18;;;;;;;;;;5010647;28;20095;-78
2022/07/25 08:57:53;;;;;;;6.18;3.92;;;;;;;;;;5059482;28;20237;-78
2022/07/25 09:00:25;;;;;;;6.18;3.58;;;;;;;;;;5040204;28;20527;-78
2022/07/25 09:03:01;;;;;;;5.25;3.83;;;;;;;;;;5041588;28;20037;-78
2022/07/25 09:05:28;;;;;;;5.20;3.30;;;;;;;;;;5019766;28;20079;-78
2022/07/25 09:07:54;;;;;;;7.65;3.28;;;;;;;;;;5003119;28;20041;-78
2022/07/25 09:10:21;;;;;;;8.43;3.47;;;;;;;;;;5020708;28;20036;-78
2022/07/25 09:12:57;;;;;;;6.47;3.17;;;;;;;;;;5045185;28;20028;-78
2022/07/25 09:15:29;;;;;;;3.92;2.60;;;;;;;;;;5034146;28;20071;-78
2022/07/25 09:17:58;;;;;;;6.57;3.00;;;;;;;;;;5046799;28;20036;-78
2022/07/25 09:20:24;;;;;;;4.80;2.60;;;;;;;;;;4995737;28;20041;-78
2022/07/25 09:22:49;;;;;;;8.25;3.25;;;;;;;;;;5014146;28;20037;-78
2022/07/25 09:25:22;;;;;;;7.10;2.65;;;;;;;;;;5006488;28;20497;-79
2022/07/25 09:27:47;;;;;;;;;;;;;;;;;;5014953;28;20040;-78
2022/07/25 09:30:13;;;;;;;11.80;3.17;;;;;;;;;;5061545;28;19920;-79
2022/07/25 09:32:39;;;;;;;4.43;2.80;;;;;;;;;;5055744;28;20255;-79
2022/07/25 09:35:04;;;;;;;4.78;2.95;;;;;;;;;;5049997;28;20534;-79
2022/07/25 09:37:30;;;;;;;12.02;3.75;;;;;;;;;;5048891;28;20109;-79
2022/07/25 09:39:55;;;;;;;9.57;3.20;;;;;;;;;;5041720;28;20041;-78
2022/07/25 09:42:28;;;;;;;3.92;2.58;;;;;;;;;;5066379;28;20593;-78
2022/07/25 09:45:11;;;;;;;4.95;2.90;;;;;;;;;;5030673;28;20037;-79
2022/07/25 09:47:56;;;;;;;4.03;2.58;;;;;;;;;;5030020;28;20554;-78
2022/07/25 09:50:23;;;;;;;4.20;2.55;;;;;;;;;;5032790;28;20028;-74
2022/07/25 09:52:52;;;;;;;6.43;3.22;;;;;;;;;;5065739;28;20083;-78
2022/07/25 09:55:19;;;;;;;7.05;3.38;;;;;;;;;;5029491;28;20041;-79
2022/07/25 09:57:46;;;;;;;3.75;2.35;;;;;;;;;;5016215;28;20103;-80
2022/07/25 10:00:12;;;;;;;3.80;3.00;;;;;;;;;;5041602;28;20060;-72
2022/07/25 10:02:53;;;;;;;6.65;2.90;;;;;;;;;;5043718;28;20040;-72
2022/07/25 10:05:48;;;;;;;3.83;2.55;;;;;;;;;;5060663;28;20040;-73
2022/07/25 10:08:13;;;;;;;4.40;2.75;;;;;;;;;;5053785;28;20397;-73
2022/07/25 10:10:40;;;;;;;5.38;2.45;;;;;;;;;;5049463;28;20045;-73
2022/07/25 10:13:16;;;;;;;5.93;2.65;;;;;;;;;;5059333;28;20036;-73
2022/07/25 10:15:50;;;;;;;7.75;3.08;;;;;;;;;;5030197;28;20036;-73
2022/07/25 10:18:17;;;;;;;10.25;2.85;;;;;;;;;;5058434;28;20079;-74
2022/07/25 10:20:46;;;;;;;5.95;3.10;;;;;;;;;;5050929;28;21966;-74
2022/07/25 10:23:25;;;;;;;4.22;2.25;;;;;;;;;;5062793;28;20094;-74
2022/07/25 10:26:02;;;;;;;7.55;2.30;;;;;;;;;;5065968;28;20032;-74
2022/07/25 10:28:38;;;;;;;3.90;2.10;;;;;;;;;;5058915;28;20473;-73
2022/07/25 10:31:33;;;;;;;5.05;1.25;;;;;;;;;;5052274;28;20055;-74
2022/07/25 10:34:01;;;;;;;2.70;1.40;;;;;;;;;;5063214;28;20029;-73
2022/07/25 10:36:28;;;;;;;4.47;2.30;;;;;;;;;;5062223;28;20025;-73
2022/07/25 10:38:58;;;;;;;6.10;1.75;;;;;;;;;;5063403;28;20032;-73
2022/07/25 10:41:27;;;;;;;6.57;1.50;;;;;;;;;;5049113;28;20049;-73
2022/07/25 10:43:56;;;;;;;2.22;1.45;;;;;;;;;;5065436;28;20450;-73
2022/07/25 10:46:22;;;;;;;5.90;1.90;;;;;;;;;;5073984;28;20039;-73
2022/07/25 10:48:58;;;;;;;8.07;1.50;;;;;;;;;;5035131;28;20533;-72
2022/07/25 10:51:28;;;;;;;3.10;1.40;;;;;;;;;;5045269;28;20029;-73
2022/07/25 10:53:53;;;;;;;5.55;1.45;;;;;;;;;;5064993;28;20028;-72
2022/07/25 10:56:28;;;;;;;3.38;1.63;;;;;;;;;;5031285;28;20038;-73
2022/07/25 10:58:58;;;;;;;5.97;1.27;;;;;;;;;;5055194;28;20125;-73
2022/07/25 11:01:25;;;;;;;6.53;1.83;;;;;;;;;;5048409;28;20135;-72
2022/07/25 11:03:52;;;;;;;4.20;1.45;;;;;;;;;;5069877;28;20040;-73
2022/07/25 11:06:30;;;;;;;7.07;1.25;;;;;;;;;;5070826;28;20032;-73
2022/07/25 11:08:58;;;;;;;1.67;1.05;;;;;;;;;;5067556;28;20036;-72
2022/07/25 11:11:37;;;;;;;4.90;1.45;;;;;;;;;;5052451;28;20028;-73
2022/07/25 11:14:04;;;;;;;4.60;1.30;;;;;;;;;;5054206;28;20445;-74
2022/07/25 11:16:29;;;;;;;3.95;1.50;;;;;;;;;;5052006;28;20397;-72
2022/07/25 11:18:54;;;;;;;10.00;1.60;;;;;;;;;;5062073;28;20304;-73
2022/07/25 11:21:20;;;;;;;3.17;1.17;;;;;;;;;;5067341;28;20455;-75
2022/07/25 11:23:51;;;;;;;4.20;1.58;;;;;;;;;;5060897;28;20046;-74
2022/07/25 11:26:17;;;;;;;6.10;1.63;;;;;;;;;;5062276;28;20024;-74
2022/07/25 11:28:47;;;;;;;8.18;1.77;;;;;;;;;;5048771;28;21610;-74
2022/07/25 11:31:13;;;;;;;9.60;1.73;;;;;;;;;;5062750;28;20488;-74
2022/07/25 11:33:39;;;;;;;4.53;1.40;;;;;;;;;;5053281;28;21647;-74
2022/07/25 11:36:05;;;;;;;4.43;1.33;;;;;;;;;;5044564;28;20396;-74
2022/07/25 11:38:31;;;;;;;5.68;1.77;;;;;;;;;;5048977;28;20024;-73
2022/07/25 11:40:57;;;;;;;3.95;1.58;;;;;;;;;;5034478;28;20055;-74
2022/07/25 11:43:22;;;;;;;9.65;2.55;;;;;;;;;;5044109;28;20033;-74
2022/07/25 11:46:05;;;;;;;6.90;1.67;;;;;;;;;;5063740;28;20086;-74
2022/07/25 11:48:32;;;;;;;7.13;1.75;;;;;;;;;;5041990;28;20032;-74
2022/07/25 11:51:15;;;;;;;7.80;2.72;;;;;;;;;;5061752;28;20037;-73
2022/07/25 11:53:45;;;;;;;10.43;2.05;;;;;;;;;;5065028;28;20025;-74
2022/07/25 11:56:19;;;;;;;7.32;2.05;;;;;;;;;;5076742;28;20119;-73
2022/07/25 11:58:57;;;;;;;8.57;2.00;;;;;;;;;;5070476;28;20101;-73
2022/07/25 12:01:23;;;;;;;7.55;2.10;;;;;;;;;;5070954;28;20555;-73
2022/07/25 12:03:49;;;;;;;5.38;1.98;;;;;;;;;;5069620;28;20035;-72
2022/07/25 12:06:14;;;;;;;5.85;1.77;;;;;;;;;;5073130;28;20032;-74
2022/07/25 12:08:40;;;;;;;7.72;2.22;;;;;;;;;;5067668;28;20485;-72
2022/07/25 12:11:18;;;;;;;5.07;1.88;;;;;;;;;;5046205;28;20037;-73
2022/07/25 12:13:43;;;;;;;7.78;2.00;;;;;;;;;;5047837;28;20083;-73
2022/07/25 12:16:09;;;;;;;9.90;2.33;;;;;;;;;;5066648;28;22037;-72
2022/07/25 12:18:34;;;;;;;5.93;1.88;;;;;;;;;;5066532;28;20520;-72
2022/07/25 12:21:00;;;;;;;4.78;2.20;;;;;;;;;;5031312;28;20238;-72
2022/07/25 12:23:25;;;;;;;5.65;1.85;;;;;;;;;;5063154;28;20047;-72
2022/07/25 12:25:50;;;;;;;9.02;2.70;;;;;;;;;;5066487;28;20029;-72
2022/07/25 12:28:16;;;;;;;10.00;2.35;;;;;;;;;;5056395;28;20052;-72
2022/07/25 12:30:42;;;;;;;9.45;2.17;;;;;;;;;;5057276;28;20032;-74
2022/07/25 12:33:07;;;;;;;16.40;3.20;;;;;;;;;;5050134;28;20028;-73
2022/07/25 12:35:33;;;;;;;8.18;2.30;;;;;;;;;;5063910;28;20090;-73
2022/07/25 12:37:58;;;;;;;6.25;2.08;;;;;;;;;;5054680;28;20032;-73
2022/07/25 12:40:24;;;;;;;6.85;2.67;;;;;;;;;;5055298;28;20115;-74
2022/07/25 12:42:49;;;;;;;6.40;2.33;;;;;;;;;;5064400;28;20128;-72
2022/07/25 12:45:16;;;;;;;5.40;2.03;;;;;;;;;;5070262;28;20534;-72
2022/07/25 12:47:42;;;;;;;10.60;2.72;;;;;;;;;;5048643;28;20500;-73
2022/07/25 12:50:08;;;;;;;6.90;2.22;;;;;;;;;;5062402;28;20047;-73
2022/07/25 12:52:33;;;;;;;5.35;2.20;;;;;;;;;;5055659;28;20439;-73
2022/07/25 12:54:59;;;;;;;7.78;1.63;;;;;;;;;;5066412;28;20032;-75
2022/07/25 12:57:24;;;;;;;9.60;2.15;;;;;;;;;;5064469;28;20116;-73
2022/07/25 12:59:49;;;;;;;7.53;2.05;;;;;;;;;;5053464;28;20100;-74
2022/07/25 13:02:15;;;;;;;11.15;2.65;;;;;;;;;;5046877;28;20427;-74
2022/07/25 13:04:40;;;;;;;7.38;1.95;;;;;;;;;;5055536;28;20128;-74
2022/07/25 13:07:06;;;;;;;7.05;1.80;;;;;;;;;;5065087;28;20028;-74
2022/07/25 13:09:32;;;;;;;6.65;2.00;;;;;;;;;;5066655;28;20060;-75
2022/07/25 13:11:57;;;;;;;8.05;2.15;;;;;;;;;;5059510;28;20039;-74
2022/07/25 13:14:23;;;;;;;7.57;2.30;;;;;;;;;;5048808;28;20035;-75
2022/07/25 13:16:48;;;;;;;9.85;2.75;;;;;;;;;;5056368;28;20029;-75
2022/07/25 13:19:14;;;;;;;15.20;2.85;;;;;;;;;;5060140;28;20046;-74
2022/07/25 13:21:39;;;;;;;8.30;2.20;;;;;;;;;;5072095;28;20491;-75
2022/07/25 13:24:06;;;;;;;8.85;3.00;;;;;;;;;;5051210;28;20032;-75
2022/07/25 13:26:31;;;;;;;13.02;2.80;;;;;;;;;;5032382;28;20064;-74
2022/07/25 13:28:57;;;;;;;9.45;2.90;;;;;;;;;;5060054;28;20111;-74
2022/07/25 13:31:22;;;;;;;8.98;3.03;;;;;;;;;;5046848;28;20480;-74
2022/07/25 13:33:48;;;;;;;9.35;3.45;;;;;;;;;;5061639;28;20055;-74
2022/07/25 13:36:13;;;;;;;13.57;3.75;;;;;;;;;;5030059;28;20028;-74
2022/07/25 13:38:40;;;;;;;13.13;3.45;;;;;;;;;;5046603;28;20037;-74
2022/07/25 13:41:06;;;;;;;10.13;3.08;;;;;;;;;;5065029;28;20049;-75
2022/07/25 13:43:31;;;;;;;11.02;3.08;;;;;;;;;;5062432;28;20392;-75
2022/07/25 13:45:57;;;;;;;10.43;3.17;;;;;;;;;;5033994;28;20059;-75
2022/07/25 13:48:22;;;;;;;15.73;4.00;;;;;;;;;;5046925;28;20421;-75
2022/07/25 13:50:47;;;;;;;10.25;3.40;;;;;;;;;;5064445;28;20518;-75
2022/07/25 13:53:13;;;;;;;9.65;3.00;;;;;;;;;;5052456;28;20111;-75
2022/07/25 13:55:38;;;;;;;12.20;4.40;;;;;;;;;;5054371;28;20113;-75
2022/07/25 13:58:03;;;;;;;9.07;4.13;;;;;;;;;;5051192;28;20112;-75
2022/07/25 14:00:29;;;;;;;9.35;3.72;;;;;;;;;;5018496;28;20049;-75
2022/07/25 14:02:54;;;;;;;13.23;3.63;;;;;;;;;;5064493;28;20060;-74
2022/07/25 14:05:20;;;;;;;6.78;3.33;;;;;;;;;;5042576;28;20166;-74
2022/07/25 14:07:45;;;;;;;12.27;3.25;;;;;;;;;;5060209;28;20032;-74
2022/07/25 14:10:11;;;;;;;10.75;2.75;;;;;;;;;;5066115;28;20081;-74
2022/07/25 14:12:38;;;;;;;12.10;3.53;;;;;;;;;;5047272;28;20057;-75
2022/07/25 14:15:04;;;;;;;7.78;3.20;;;;;;;;;;5053510;28;20029;-73
2022/07/25 14:17:29;;;;;;;11.25;3.45;;;;;;;;;;5069675;28;20032;-74
2022/07/25 14:19:55;;;;;;;7.88;3.05;;;;;;;;;;5055412;28;20070;-74
2022/07/25 14:22:21;;;;;;;7.93;3.03;;;;;;;;;;5062663;28;20059;-72
2022/07/25 14:24:46;;;;;;;11.15;2.90;;;;;;;;;;5046236;28;20048;-74
2022/07/25 14:27:12;;;;;;;10.68;2.67;;;;;;;;;;5063664;28;20060;-74